createdAt,value
2023-08-05T00:01:03.934Z,27.29
2023-08-05T00:03:30.759Z,27.31
2023-08-05T00:06:02.334Z,27.30
2023-08-05T00:08:29.073Z,27.28
2023-08-05T00:10:55.818Z,27.33
2023-08-05T00:13:22.718Z,27.38
2023-08-05T00:15:51.639Z,27.39
2023-08-05T00:18:18.391Z,27.33
2023-08-05T00:20:45.166Z,27.33
2023-08-05T00:23:11.953Z,27.32
2023-08-05T00:25:38.702Z,27.32
2023-08-05T00:28:05.629Z,27.30
2023-08-05T00:30:32.362Z,27.34
2023-08-05T00:32:59.011Z,27.37
2023-08-05T00:35:26.396Z,27.35
2023-08-05T00:37:53.432Z,27.40
2023-08-05T00:40:20.213Z,27.35
2023-08-05T00:42:49.895Z,27.39
2023-08-05T00:45:18.967Z,27.44
2023-08-05T00:47:45.719Z,27.45
2023-08-05T00:50:12.487Z,27.45
2023-08-05T00:52:41.474Z,27.45
2023-08-05T00:55:08.399Z,27.47
2023-08-05T00:57:35.377Z,27.47
2023-08-05T01:00:02.471Z,27.46
2023-08-05T01:02:29.408Z,27.47
2023-08-05T01:04:56.240Z,27.44
2023-08-05T01:07:23.009Z,27.44
2023-08-05T01:09:52.615Z,27.46
2023-08-05T01:12:21.502Z,27.43
2023-08-05T01:14:48.212Z,27.42
2023-08-05T01:17:18.637Z,27.40
2023-08-05T01:19:45.398Z,27.43
2023-08-05T01:22:31.864Z,27.44
2023-08-05T01:25:01.317Z,27.44
2023-08-05T01:27:28.023Z,27.44
2023-08-05T01:29:56.986Z,27.43
2023-08-05T01:32:23.737Z,27.44
2023-08-05T01:34:50.789Z,27.42
2023-08-05T01:37:21.019Z,27.41
2023-08-05T01:39:48.746Z,27.42
2023-08-05T01:42:15.522Z,27.42
2023-08-05T01:44:42.233Z,27.43
2023-08-05T01:47:11.104Z,27.40
2023-08-05T01:49:42.519Z,27.37
2023-08-05T01:52:11.375Z,27.40
2023-08-05T01:54:40.402Z,27.39
2023-08-05T01:57:07.554Z,27.39
2023-08-05T01:59:34.363Z,27.34
2023-08-05T02:02:03.387Z,27.39
2023-08-05T02:04:32.326Z,27.39
2023-08-05T02:06:59.062Z,27.41
2023-08-05T02:09:25.748Z,27.41
2023-08-05T02:11:52.603Z,27.40
2023-08-05T02:14:21.537Z,27.40
2023-08-05T02:16:51.572Z,27.39
2023-08-05T02:19:18.555Z,27.40
2023-08-05T02:21:45.219Z,27.39
2023-08-05T02:24:12.486Z,27.39
2023-08-05T02:26:39.267Z,27.35
2023-08-05T02:29:05.959Z,27.39
2023-08-05T02:31:32.674Z,27.37
2023-08-05T02:34:02.215Z,27.37
2023-08-05T02:36:28.955Z,27.38
2023-08-05T02:38:56.696Z,27.36
2023-08-05T02:41:23.447Z,27.34
2023-08-05T02:43:50.170Z,27.37
2023-08-05T02:46:16.937Z,27.37
2023-08-05T02:48:43.648Z,27.35
2023-08-05T02:51:10.488Z,27.35
2023-08-05T02:53:37.203Z,27.38
2023-08-05T02:56:06.301Z,27.34
2023-08-05T02:58:33.290Z,27.36
2023-08-05T03:01:11.439Z,27.35
2023-08-05T03:03:38.307Z,27.32
2023-08-05T03:06:05.466Z,27.33
2023-08-05T03:08:34.627Z,27.32
2023-08-05T03:11:01.854Z,27.27
2023-08-05T03:13:28.635Z,27.29
2023-08-05T03:15:55.420Z,27.31
2023-08-05T03:18:24.686Z,27.30
2023-08-05T03:20:51.383Z,27.31
2023-08-05T03:23:18.175Z,27.31
2023-08-05T03:25:44.879Z,27.31
2023-08-05T03:28:11.587Z,27.31
2023-08-05T03:30:38.289Z,27.31
2023-08-05T03:33:07.245Z,27.33
2023-08-05T03:35:34.000Z,27.31
2023-08-05T03:38:01.215Z,27.30
2023-08-05T03:40:28.000Z,27.31
2023-08-05T03:42:55.179Z,27.27
2023-08-05T03:45:22.033Z,27.28
2023-08-05T03:47:51.310Z,27.26
2023-08-05T03:50:18.418Z,27.26
2023-08-05T03:52:45.681Z,27.26
2023-08-05T03:55:12.483Z,27.26
2023-08-05T03:57:39.181Z,27.26
2023-08-05T04:00:06.571Z,27.26
2023-08-05T04:02:35.619Z,27.27
2023-08-05T04:05:04.896Z,27.26
2023-08-05T04:07:35.267Z,27.25
2023-08-05T04:10:05.198Z,27.25
2023-08-05T04:12:34.175Z,27.22
2023-08-05T04:15:01.008Z,27.23
2023-08-05T04:17:30.632Z,27.22
2023-08-05T04:19:57.676Z,27.22
2023-08-05T04:22:26.579Z,27.23
2023-08-05T04:24:54.269Z,27.24
2023-08-05T04:27:23.287Z,27.23
2023-08-05T04:29:50.378Z,27.19
2023-08-05T04:32:17.132Z,27.19
2023-08-05T04:34:45.193Z,27.19
2023-08-05T04:37:22.505Z,27.20
2023-08-05T04:39:50.060Z,27.19
2023-08-05T04:42:19.055Z,27.19
2023-08-05T04:44:46.954Z,27.18
2023-08-05T04:47:13.785Z,27.20
2023-08-05T04:49:42.666Z,27.15
2023-08-05T04:52:09.512Z,27.11
2023-08-05T04:54:43.000Z,26.96
2023-08-05T04:57:09.789Z,26.73
2023-08-05T04:59:36.519Z,26.68
2023-08-05T05:02:06.478Z,26.75
2023-08-05T05:04:33.228Z,26.80
2023-08-05T05:07:02.098Z,26.82
2023-08-05T05:09:33.582Z,26.82
2023-08-05T05:12:01.446Z,26.77
2023-08-05T05:14:28.149Z,26.78
2023-08-05T05:16:54.942Z,26.79
2023-08-05T05:19:21.719Z,26.82
2023-08-05T05:21:51.676Z,26.82
2023-08-05T05:24:19.291Z,26.82
2023-08-05T05:26:46.057Z,26.82
2023-08-05T05:29:15.038Z,26.81
2023-08-05T05:31:41.805Z,26.82
2023-08-05T05:34:08.849Z,26.81
2023-08-05T05:36:40.272Z,26.81
2023-08-05T05:39:09.574Z,26.75
2023-08-05T05:41:36.562Z,26.74
2023-08-05T05:44:05.329Z,26.71
2023-08-05T05:46:35.119Z,26.68
2023-08-05T05:49:02.616Z,26.64
2023-08-05T05:51:31.880Z,26.65
2023-08-05T05:54:01.019Z,26.57
2023-08-05T05:56:30.028Z,26.42
2023-08-05T05:58:56.768Z,26.48
2023-08-05T06:01:24.727Z,26.43
2023-08-05T06:03:54.353Z,26.46
2023-08-05T06:06:21.519Z,26.47
2023-08-05T06:08:48.311Z,26.49
2023-08-05T06:11:15.372Z,26.45
2023-08-05T06:13:44.359Z,26.50
2023-08-05T06:16:13.439Z,26.46
2023-08-05T06:18:42.332Z,26.48
2023-08-05T06:21:09.130Z,26.53
2023-08-05T06:23:35.910Z,26.48
2023-08-05T06:26:02.687Z,26.51
2023-08-05T06:28:29.388Z,26.54
2023-08-05T06:30:56.680Z,26.58
2023-08-05T06:33:25.849Z,26.60
2023-08-05T06:35:52.581Z,26.60
2023-08-05T06:38:19.425Z,26.63
2023-08-05T06:40:49.631Z,26.63
2023-08-05T06:43:16.641Z,26.65
2023-08-05T06:45:45.523Z,26.68
2023-08-05T06:48:12.206Z,26.71
2023-08-05T06:50:38.987Z,26.77
2023-08-05T06:53:05.857Z,26.82
2023-08-05T06:55:32.621Z,26.88
2023-08-05T06:57:59.409Z,26.92
2023-08-05T07:00:28.833Z,26.95
2023-08-05T07:02:55.638Z,26.98
2023-08-05T07:05:22.408Z,27.02
2023-08-05T07:07:52.203Z,27.11
2023-08-05T07:10:19.932Z,27.21
2023-08-05T07:12:46.676Z,27.24
2023-08-05T07:15:13.457Z,27.21
2023-08-05T07:17:40.305Z,27.29
2023-08-05T07:20:07.971Z,27.27
2023-08-05T07:22:36.205Z,27.27
2023-08-05T07:25:05.431Z,27.26
2023-08-05T07:27:34.418Z,27.30
2023-08-05T07:30:03.403Z,27.30
2023-08-05T07:32:31.543Z,27.27
2023-08-05T07:35:00.754Z,27.30
2023-08-05T07:37:27.909Z,27.36
2023-08-05T07:39:54.681Z,27.35
2023-08-05T07:42:23.992Z,27.34
2023-08-05T07:44:53.543Z,27.37
2023-08-05T07:47:20.533Z,27.37
2023-08-05T07:49:47.366Z,27.37
2023-08-05T07:52:15.839Z,27.35
2023-08-05T07:54:46.792Z,27.34
2023-08-05T07:57:15.689Z,27.35
2023-08-05T07:59:42.410Z,27.35
2023-08-05T08:02:11.509Z,27.34
2023-08-05T08:04:38.324Z,27.35
2023-08-05T08:07:06.044Z,27.40
2023-08-05T08:09:33.124Z,27.38
2023-08-05T08:11:59.959Z,27.38
2023-08-05T08:14:29.033Z,27.37
2023-08-05T08:16:55.875Z,27.37
2023-08-05T08:19:24.246Z,27.37
2023-08-05T08:21:51.294Z,27.39
2023-08-05T08:24:21.818Z,27.39
2023-08-05T08:26:52.423Z,27.38
2023-08-05T08:29:21.507Z,27.38
2023-08-05T08:31:48.286Z,27.33
2023-08-05T08:34:15.093Z,27.35
2023-08-05T08:36:44.423Z,27.35
2023-08-05T08:39:11.245Z,27.37
2023-08-05T08:41:42.793Z,27.41
2023-08-05T08:44:12.431Z,27.41
2023-08-05T08:46:41.378Z,27.39
2023-08-05T08:49:08.482Z,27.44
2023-08-05T08:51:35.196Z,27.42
2023-08-05T08:54:04.690Z,27.43
2023-08-05T08:56:33.321Z,27.44
2023-08-05T08:59:02.212Z,27.44
2023-08-05T09:01:29.035Z,27.46
2023-08-05T09:03:58.032Z,27.47
2023-08-05T09:06:25.083Z,27.46
2023-08-05T09:08:54.154Z,27.47
2023-08-05T09:11:20.955Z,27.50
2023-08-05T09:13:47.705Z,27.49
2023-08-05T09:16:19.736Z,27.49
2023-08-05T09:19:00.170Z,27.52
2023-08-05T09:21:30.321Z,27.54
2023-08-05T09:23:59.795Z,27.54
2023-08-05T09:26:30.286Z,27.53
2023-08-05T09:28:57.554Z,27.56
2023-08-05T09:31:24.429Z,27.56
2023-08-05T09:33:51.197Z,27.55
2023-08-05T09:36:18.475Z,27.54
2023-08-05T09:38:46.352Z,27.56
2023-08-05T09:41:13.121Z,27.55
2023-08-05T09:43:46.885Z,27.57
2023-08-05T09:46:13.698Z,27.60
2023-08-05T09:48:44.338Z,27.59
2023-08-05T09:51:20.033Z,27.59
2023-08-05T09:53:50.653Z,27.58
2023-08-05T09:56:21.653Z,27.61
2023-08-05T09:58:49.473Z,27.60
2023-08-05T10:01:16.251Z,27.60
2023-08-05T10:03:43.043Z,27.62
2023-08-05T10:06:10.349Z,27.62
2023-08-05T10:08:37.680Z,27.65
2023-08-05T10:11:05.234Z,27.63
2023-08-05T10:13:37.337Z,27.67
2023-08-05T10:16:04.289Z,27.62
2023-08-05T10:18:30.995Z,27.66
2023-08-05T10:20:57.840Z,27.66
2023-08-05T10:23:29.853Z,27.69
2023-08-05T10:26:00.888Z,27.70
2023-08-05T10:28:27.640Z,27.68
2023-08-05T10:30:57.634Z,27.68
2023-08-05T10:33:27.001Z,27.69
2023-08-05T10:36:01.852Z,27.69
2023-08-05T10:38:29.117Z,27.66
2023-08-05T10:41:05.785Z,27.66
2023-08-05T10:43:32.713Z,27.68
2023-08-05T10:46:08.876Z,27.66
2023-08-05T10:48:51.343Z,27.66
2023-08-05T10:51:26.277Z,27.70
2023-08-05T10:53:52.989Z,27.68
2023-08-05T10:56:19.813Z,27.66
2023-08-05T10:58:52.971Z,27.66
2023-08-05T11:01:19.840Z,27.68
2023-08-05T11:03:51.706Z,27.67
2023-08-05T11:06:25.563Z,27.71
2023-08-05T11:08:52.447Z,27.69
2023-08-05T11:11:20.109Z,27.66
2023-08-05T11:13:47.976Z,27.67
2023-08-05T11:16:18.322Z,27.66
2023-08-05T11:18:57.044Z,27.66
2023-08-05T11:21:23.954Z,27.65
2023-08-05T11:23:50.700Z,27.64
2023-08-05T11:26:20.990Z,27.65
2023-08-05T11:28:47.845Z,27.66
2023-08-05T11:31:24.727Z,27.65
2023-08-05T11:33:52.353Z,27.70
2023-08-05T11:36:29.215Z,27.67
2023-08-05T11:39:02.020Z,27.67
2023-08-05T11:41:28.915Z,27.66
2023-08-05T11:43:56.028Z,27.66
2023-08-05T11:46:31.031Z,27.59
2023-08-05T11:49:10.831Z,27.61
2023-08-05T11:51:54.563Z,27.61
2023-08-05T11:54:33.224Z,27.62
2023-08-05T11:57:00.138Z,27.61
2023-08-05T11:59:49.619Z,27.59
2023-08-05T12:02:17.574Z,27.59
2023-08-05T12:04:48.871Z,27.58
2023-08-05T12:07:19.707Z,27.61
2023-08-05T12:09:46.615Z,27.59
2023-08-05T12:12:18.069Z,27.62
2023-08-05T12:14:45.079Z,27.58
2023-08-05T12:17:11.971Z,27.61
2023-08-05T12:19:42.866Z,27.59
2023-08-05T12:22:09.570Z,27.58
2023-08-05T12:24:36.290Z,27.59
2023-08-05T12:27:03.111Z,27.61
2023-08-05T12:29:32.072Z,27.66
2023-08-05T12:31:58.982Z,27.65
2023-08-05T12:34:25.640Z,27.59
2023-08-05T12:36:52.315Z,27.63
2023-08-05T12:39:19.175Z,27.61
2023-08-05T12:41:46.119Z,27.63
2023-08-05T12:44:15.042Z,27.66
2023-08-05T12:46:41.762Z,27.61
2023-08-05T12:49:08.426Z,27.62
2023-08-05T12:51:35.260Z,27.63
2023-08-05T12:54:01.962Z,27.68
2023-08-05T12:56:28.681Z,27.65
2023-08-05T12:58:55.445Z,27.60
2023-08-05T13:01:22.172Z,27.60
2023-08-05T13:03:48.965Z,27.59
2023-08-05T13:06:15.750Z,27.60
2023-08-05T13:08:42.579Z,27.62
2023-08-05T13:11:09.269Z,27.63
2023-08-05T13:13:36.014Z,27.65
2023-08-05T13:16:02.887Z,27.69
2023-08-05T13:18:31.738Z,27.65
2023-08-05T13:20:58.406Z,27.70
2023-08-05T13:23:27.442Z,27.60
2023-08-05T13:25:54.132Z,27.66
2023-08-05T13:28:20.810Z,27.69
2023-08-05T13:30:47.645Z,27.69
2023-08-05T13:33:14.300Z,27.71
2023-08-05T13:35:41.100Z,27.72
2023-08-05T13:38:07.947Z,27.69
2023-08-05T13:40:36.826Z,27.69
2023-08-05T13:43:03.536Z,27.67
2023-08-05T13:45:30.313Z,27.65
2023-08-05T13:47:56.984Z,27.72
2023-08-05T13:50:24.288Z,27.70
2023-08-05T13:52:54.167Z,27.75
2023-08-05T13:55:20.907Z,27.73
2023-08-05T13:57:48.902Z,27.69
2023-08-05T14:00:17.204Z,27.75
2023-08-05T14:02:44.114Z,27.67
2023-08-05T14:05:11.069Z,27.74
2023-08-05T14:07:37.779Z,27.78
2023-08-05T14:10:07.275Z,27.74
2023-08-05T14:12:33.954Z,27.71
2023-08-05T14:15:01.204Z,27.72
2023-08-05T14:17:28.004Z,27.73
2023-08-05T14:19:57.004Z,27.70
2023-08-05T14:22:23.771Z,27.73
2023-08-05T14:24:50.470Z,27.71
2023-08-05T14:27:17.142Z,27.68
2023-08-05T14:29:43.813Z,27.66
2023-08-05T14:32:10.733Z,27.68
2023-08-05T14:34:37.470Z,27.70
2023-08-05T14:37:04.499Z,27.68
2023-08-05T14:39:32.240Z,27.68
2023-08-05T14:41:59.124Z,27.69
2023-08-05T14:44:25.830Z,27.66
2023-08-05T14:46:52.559Z,27.71
2023-08-05T14:49:19.308Z,27.75
2023-08-05T14:51:46.073Z,27.77
2023-08-05T14:54:14.920Z,27.80
2023-08-05T14:56:43.049Z,27.80
2023-08-05T14:59:11.306Z,27.79
2023-08-05T15:01:38.332Z,27.77
2023-08-05T15:04:05.237Z,27.74
2023-08-05T15:06:34.214Z,27.78
2023-08-05T15:09:03.273Z,27.78
2023-08-05T15:11:30.576Z,27.79
2023-08-05T15:13:57.274Z,27.78
2023-08-05T15:16:24.060Z,27.82
2023-08-05T15:18:50.816Z,27.83
2023-08-05T15:21:17.518Z,27.82
2023-08-05T15:23:44.254Z,27.78
2023-08-05T15:26:10.977Z,27.78
2023-08-05T15:28:37.701Z,27.80
2023-08-05T15:31:04.513Z,27.79
2023-08-05T15:33:31.342Z,27.74
2023-08-05T15:36:00.221Z,27.77
2023-08-05T15:38:26.912Z,27.74
2023-08-05T15:41:00.347Z,27.74
2023-08-05T15:43:29.321Z,27.75
2023-08-05T15:45:59.821Z,27.74
2023-08-05T15:48:28.816Z,27.74
2023-08-05T15:50:59.757Z,27.74
2023-08-05T15:53:26.489Z,27.78
2023-08-05T15:56:02.209Z,27.74
2023-08-05T15:58:32.313Z,27.78
2023-08-05T16:01:02.513Z,27.79
2023-08-05T16:03:29.367Z,27.77
2023-08-05T16:06:09.474Z,27.78
2023-08-05T16:08:38.472Z,27.81
2023-08-05T16:11:09.459Z,27.74
2023-08-05T16:13:38.364Z,27.73
2023-08-05T16:16:23.222Z,27.77
2023-08-05T16:18:49.982Z,27.71
2023-08-05T16:21:24.035Z,27.72
2023-08-05T16:23:58.642Z,27.76
2023-08-05T16:26:26.181Z,27.77
2023-08-05T16:28:53.557Z,27.76
2023-08-05T16:31:25.141Z,27.73
2023-08-05T16:33:54.430Z,27.79
2023-08-05T16:36:23.405Z,27.77
2023-08-05T16:38:52.850Z,27.76
2023-08-05T16:41:19.751Z,27.76
2023-08-05T16:43:46.507Z,27.80
2023-08-05T16:46:13.596Z,27.81
2023-08-05T16:48:40.376Z,27.77
2023-08-05T16:51:07.122Z,27.72
2023-08-05T16:53:34.509Z,27.75
2023-08-05T16:56:05.253Z,27.74
2023-08-05T16:58:32.285Z,27.75
2023-08-05T17:00:59.150Z,27.75
2023-08-05T17:03:25.973Z,27.73
2023-08-05T17:05:53.645Z,27.72
2023-08-05T17:08:20.964Z,27.73
2023-08-05T17:10:47.817Z,27.73
2023-08-05T17:13:19.293Z,27.73
2023-08-05T17:15:46.354Z,27.74
2023-08-05T17:18:13.723Z,27.72
2023-08-05T17:20:40.775Z,27.72
2023-08-05T17:23:11.320Z,27.73
2023-08-05T17:25:41.860Z,27.73
2023-08-05T17:28:09.199Z,27.74
2023-08-05T17:30:36.126Z,27.72
2023-08-05T17:33:03.275Z,27.72
2023-08-05T17:35:31.348Z,27.71
2023-08-05T17:37:59.349Z,27.70
2023-08-05T17:40:26.631Z,27.72
2023-08-05T17:42:53.363Z,27.70
2023-08-05T17:45:20.074Z,27.70
2023-08-05T17:47:46.978Z,27.68
2023-08-05T17:50:13.850Z,27.68
2023-08-05T17:52:42.727Z,27.67
2023-08-05T17:55:12.206Z,27.69
2023-08-05T17:57:38.935Z,27.72
2023-08-05T18:00:06.312Z,27.67
2023-08-05T18:02:33.159Z,27.66
2023-08-05T18:04:59.894Z,27.67
2023-08-05T18:07:26.695Z,27.69
2023-08-05T18:09:53.489Z,27.64
2023-08-05T18:12:20.206Z,27.69
2023-08-05T18:14:49.200Z,27.66
2023-08-05T18:17:16.311Z,27.65
2023-08-05T18:19:43.107Z,27.63
2023-08-05T18:22:09.979Z,27.66
2023-08-05T18:24:36.696Z,27.67
2023-08-05T18:27:03.695Z,27.67
2023-08-05T18:29:32.620Z,27.69
2023-08-05T18:32:00.093Z,27.67
2023-08-05T18:34:26.867Z,27.67
2023-08-05T18:36:53.550Z,27.68
2023-08-05T18:39:22.432Z,27.66
2023-08-05T18:41:51.701Z,27.62
2023-08-05T18:44:18.829Z,27.69
2023-08-05T18:46:48.403Z,27.75
2023-08-05T18:49:15.094Z,27.73
2023-08-05T18:51:42.029Z,27.71
2023-08-05T18:54:08.973Z,27.69
2023-08-05T18:56:37.983Z,27.66
2023-08-05T18:59:04.765Z,27.62
2023-08-05T19:01:31.647Z,27.60
2023-08-05T19:03:58.498Z,27.59
2023-08-05T19:06:25.867Z,27.54
2023-08-05T19:08:54.709Z,27.50
2023-08-05T19:11:21.432Z,27.44
2023-08-05T19:13:48.195Z,27.38
2023-08-05T19:16:17.097Z,27.37
2023-08-05T19:18:43.853Z,27.38
2023-08-05T19:21:13.316Z,27.38
2023-08-05T19:23:58.919Z,27.30
2023-08-05T19:26:25.692Z,27.24
2023-08-05T19:28:52.496Z,27.20
2023-08-05T19:31:19.318Z,27.34
2023-08-05T19:33:46.536Z,27.26
2023-08-05T19:36:17.204Z,27.16
2023-08-05T19:38:44.926Z,27.12
2023-08-05T19:41:16.016Z,27.15
2023-08-05T19:43:43.209Z,27.11
2023-08-05T19:46:15.794Z,27.08
2023-08-05T19:48:45.423Z,27.05
2023-08-05T19:51:14.565Z,27.01
2023-08-05T19:53:46.450Z,26.95
2023-08-05T19:56:13.377Z,26.93
2023-08-05T19:58:40.139Z,26.97
2023-08-05T20:01:08.064Z,27.03
2023-08-05T20:03:36.754Z,27.01
2023-08-05T20:06:03.624Z,27.01
2023-08-05T20:08:30.451Z,27.02
2023-08-05T20:10:57.200Z,26.98
2023-08-05T20:13:26.242Z,27.01
2023-08-05T20:15:59.813Z,27.00
2023-08-05T20:18:27.015Z,27.07
2023-08-05T20:20:53.857Z,27.00
2023-08-05T20:23:23.467Z,27.00
2023-08-05T20:25:52.391Z,27.05
2023-08-05T20:28:21.511Z,27.17
2023-08-05T20:30:53.916Z,27.18
2023-08-05T20:33:20.725Z,27.10
2023-08-05T20:35:47.440Z,27.03
2023-08-05T20:38:14.088Z,26.95
2023-08-05T20:40:40.851Z,26.94
2023-08-05T20:43:08.992Z,26.88
2023-08-05T20:45:38.874Z,26.85
2023-08-05T20:48:08.838Z,26.89
2023-08-05T20:50:35.626Z,26.87
2023-08-05T20:53:02.566Z,26.82
2023-08-05T20:55:29.393Z,26.89
2023-08-05T20:57:56.132Z,26.85
2023-08-05T21:00:22.911Z,26.81
2023-08-05T21:02:49.734Z,26.76
2023-08-05T21:05:19.691Z,26.77
2023-08-05T21:07:46.861Z,26.75
2023-08-05T21:10:13.664Z,26.73
2023-08-05T21:12:40.900Z,26.72
2023-08-05T21:15:08.083Z,26.75
2023-08-05T21:17:35.290Z,26.73
2023-08-05T21:20:02.200Z,26.81
2023-08-05T21:22:36.173Z,26.83
2023-08-05T21:25:03.617Z,26.74
2023-08-05T21:27:30.381Z,26.73
2023-08-05T21:29:57.125Z,26.70
2023-08-05T21:32:23.902Z,26.71
2023-08-05T21:34:50.674Z,26.71
2023-08-05T21:37:17.450Z,26.71
2023-08-05T21:39:47.050Z,26.90
2023-08-05T21:42:13.854Z,26.85
2023-08-05T21:44:40.596Z,26.78
2023-08-05T21:47:07.320Z,26.77
2023-08-05T21:49:36.381Z,26.80
2023-08-05T21:52:05.369Z,26.79
2023-08-05T21:54:32.248Z,26.77
2023-08-05T21:56:59.188Z,26.72
2023-08-05T21:59:26.337Z,26.73
2023-08-05T22:01:55.286Z,26.71
2023-08-05T22:04:24.925Z,26.72
2023-08-05T22:06:53.944Z,26.77
2023-08-05T22:09:23.019Z,26.78
2023-08-05T22:11:52.268Z,26.78
2023-08-05T22:14:19.066Z,26.81
2023-08-05T22:16:47.983Z,26.77
2023-08-05T22:19:14.756Z,26.70
2023-08-05T22:21:41.531Z,26.74
2023-08-05T22:24:08.315Z,26.95
2023-08-05T22:26:37.171Z,26.94
2023-08-05T22:29:04.204Z,26.76
2023-08-05T22:31:30.957Z,26.68
2023-08-05T22:33:57.684Z,26.82
2023-08-05T22:36:24.436Z,26.87
2023-08-05T22:38:51.219Z,26.78
2023-08-05T22:41:18.417Z,26.90
2023-08-05T22:43:47.317Z,26.88
2023-08-05T22:46:14.264Z,26.79
2023-08-05T22:48:40.997Z,26.81
2023-08-05T22:51:08.279Z,26.91
2023-08-05T22:53:34.962Z,26.82
2023-08-05T22:56:04.893Z,26.76
2023-08-05T22:58:31.729Z,26.77
2023-08-05T23:01:05.174Z,26.74
2023-08-05T23:03:32.006Z,26.72
2023-08-05T23:05:58.942Z,26.72
2023-08-05T23:08:28.001Z,26.70
2023-08-05T23:10:56.960Z,26.72
2023-08-05T23:13:23.787Z,26.72
2023-08-05T23:15:50.619Z,26.65
2023-08-05T23:18:17.338Z,26.69
2023-08-05T23:20:44.090Z,26.68
2023-08-05T23:23:10.804Z,26.63
2023-08-05T23:25:38.115Z,26.62
2023-08-05T23:28:04.918Z,26.57
2023-08-05T23:30:34.291Z,26.56
2023-08-05T23:33:01.356Z,26.57
2023-08-05T23:35:30.224Z,26.60
2023-08-05T23:37:57.396Z,26.51
2023-08-05T23:40:24.561Z,26.47
2023-08-05T23:42:51.229Z,26.47
2023-08-05T23:45:18.200Z,26.46
2023-08-05T23:47:47.092Z,26.47
2023-08-05T23:50:13.928Z,26.43
2023-08-05T23:52:43.616Z,26.44
2023-08-05T23:55:10.409Z,26.50
2023-08-05T23:57:37.734Z,26.47
